sensor_id;sensor_type;location;lat;lon;timestamp;P1;durP1;ratioP1;P2;durP2;ratioP2
5345;SDS011;2695;49.444;11.054;2023-08-06T00:00:27;6.70;;;3.30;;
5345;SDS011;2695;49.444;11.054;2023-08-06T00:02:55;4.23;;;3.23;;
5345;SDS011;2695;49.444;11.054;2023-08-06T00:05:24;3.83;;;3.13;;
5345;SDS011;2695;49.444;11.054;2023-08-06T00:07:51;2.67;;;2.43;;
5345;SDS011;2695;49.444;11.054;2023-08-06T00:10:19;4.13;;;3.03;;
5345;SDS011;2695;49.444;11.054;2023-08-06T00:12:47;5.70;;;3.67;;
5345;SDS011;2695;49.444;11.054;2023-08-06T00:15:17;3.83;;;2.80;;
5345;SDS011;2695;49.444;11.054;2023-08-06T00:17:45;3.03;;;2.73;;
5345;SDS011;2695;49.444;11.054;2023-08-06T00:20:13;4.00;;;2.20;;
5345;SDS011;2695;49.444;11.054;2023-08-06T00:22:41;3.60;;;3.00;;
5345;SDS011;2695;49.444;11.054;2023-08-06T00:25:09;4.40;;;3.60;;
5345;SDS011;2695;49.444;11.054;2023-08-06T00:27:37;6.23;;;3.13;;
5345;SDS011;2695;49.444;11.054;2023-08-06T00:30:06;4.47;;;2.93;;
5345;SDS011;2695;49.444;11.054;2023-08-06T00:32:35;6.50;;;4.13;;
5345;SDS011;2695;49.444;11.054;2023-08-06T00:35:03;5.70;;;3.43;;
5345;SDS011;2695;49.444;11.054;2023-08-06T00:37:32;3.50;;;3.20;;
5345;SDS011;2695;49.444;11.054;2023-08-06T00:40:00;4.00;;;3.60;;
5345;SDS011;2695;49.444;11.054;2023-08-06T00:42:28;3.80;;;3.50;;
5345;SDS011;2695;49.444;11.054;2023-08-06T00:44:56;2.90;;;2.70;;
5345;SDS011;2695;49.444;11.054;2023-08-06T00:47:25;3.60;;;3.30;;
5345;SDS011;2695;49.444;11.054;2023-08-06T00:49:55;5.50;;;2.97;;
5345;SDS011;2695;49.444;11.054;2023-08-06T00:52:23;3.50;;;2.97;;
5345;SDS011;2695;49.444;11.054;2023-08-06T00:54:51;5.80;;;3.40;;
5345;SDS011;2695;49.444;11.054;2023-08-06T00:57:19;3.00;;;2.70;;
5345;SDS011;2695;49.444;11.054;2023-08-06T00:59:51;3.63;;;2.97;;
5345;SDS011;2695;49.444;11.054;2023-08-06T01:02:21;5.27;;;3.40;;
5345;SDS011;2695;49.444;11.054;2023-08-06T01:04:49;3.90;;;3.43;;
5345;SDS011;2695;49.444;11.054;2023-08-06T01:07:21;3.30;;;3.00;;
5345;SDS011;2695;49.444;11.054;2023-08-06T01:10:19;3.17;;;2.87;;
5345;SDS011;2695;49.444;11.054;2023-08-06T01:12:55;3.60;;;3.30;;
5345;SDS011;2695;49.444;11.054;2023-08-06T01:15:33;3.63;;;3.30;;
5345;SDS011;2695;49.444;11.054;2023-08-06T01:18:08;5.17;;;3.40;;
5345;SDS011;2695;49.444;11.054;2023-08-06T01:20:38;3.87;;;2.90;;
5345;SDS011;2695;49.444;11.054;2023-08-06T01:23:06;3.80;;;3.20;;
5345;SDS011;2695;49.444;11.054;2023-08-06T01:25:35;4.03;;;3.43;;
5345;SDS011;2695;49.444;11.054;2023-08-06T01:28:13;3.27;;;2.90;;
5345;SDS011;2695;49.444;11.054;2023-08-06T01:30:46;4.00;;;3.10;;
5345;SDS011;2695;49.444;11.054;2023-08-06T01:33:16;2.83;;;2.53;;
5345;SDS011;2695;49.444;11.054;2023-08-06T01:35:50;3.07;;;2.77;;
5345;SDS011;2695;49.444;11.054;2023-08-06T01:38:19;4.33;;;3.17;;
5345;SDS011;2695;49.444;11.054;2023-08-06T01:40:48;2.53;;;2.33;;
5345;SDS011;2695;49.444;11.054;2023-08-06T01:43:18;4.17;;;2.60;;
5345;SDS011;2695;49.444;11.054;2023-08-06T01:45:46;4.90;;;3.13;;
5345;SDS011;2695;49.444;11.054;2023-08-06T01:48:14;5.10;;;3.20;;
5345;SDS011;2695;49.444;11.054;2023-08-06T01:50:43;5.10;;;3.00;;
5345;SDS011;2695;49.444;11.054;2023-08-06T01:53:12;3.60;;;2.70;;
5345;SDS011;2695;49.444;11.054;2023-08-06T01:55:40;3.47;;;2.43;;
5345;SDS011;2695;49.444;11.054;2023-08-06T01:58:08;5.90;;;2.67;;
5345;SDS011;2695;49.444;11.054;2023-08-06T02:00:36;1.90;;;1.80;;
5345;SDS011;2695;49.444;11.054;2023-08-06T02:03:04;4.50;;;2.20;;
5345;SDS011;2695;49.444;11.054;2023-08-06T02:05:32;3.60;;;2.10;;
5345;SDS011;2695;49.444;11.054;2023-08-06T02:08:00;2.53;;;2.33;;
5345;SDS011;2695;49.444;11.054;2023-08-06T02:10:29;4.43;;;2.63;;
5345;SDS011;2695;49.444;11.054;2023-08-06T02:12:57;2.70;;;2.50;;
5345;SDS011;2695;49.444;11.054;2023-08-06T02:15:25;2.40;;;2.20;;
5345;SDS011;2695;49.444;11.054;2023-08-06T02:17:53;3.20;;;2.50;;
5345;SDS011;2695;49.444;11.054;2023-08-06T02:20:21;2.97;;;2.53;;
5345;SDS011;2695;49.444;11.054;2023-08-06T02:22:49;3.67;;;1.93;;
5345;SDS011;2695;49.444;11.054;2023-08-06T02:25:17;2.30;;;2.10;;
5345;SDS011;2695;49.444;11.054;2023-08-06T02:27:46;2.87;;;2.57;;
5345;SDS011;2695;49.444;11.054;2023-08-06T02:30:14;3.57;;;2.40;;
5345;SDS011;2695;49.444;11.054;2023-08-06T02:32:42;3.40;;;2.67;;
5345;SDS011;2695;49.444;11.054;2023-08-06T02:35:10;4.43;;;3.10;;
5345;SDS011;2695;49.444;11.054;2023-08-06T02:37:38;2.50;;;2.30;;
5345;SDS011;2695;49.444;11.054;2023-08-06T02:40:07;4.73;;;2.60;;
5345;SDS011;2695;49.444;11.054;2023-08-06T02:42:37;2.57;;;2.20;;
5345;SDS011;2695;49.444;11.054;2023-08-06T02:45:07;3.00;;;2.80;;
5345;SDS011;2695;49.444;11.054;2023-08-06T02:47:36;2.80;;;2.37;;
5345;SDS011;2695;49.444;11.054;2023-08-06T02:50:04;2.43;;;1.70;;
5345;SDS011;2695;49.444;11.054;2023-08-06T02:52:33;2.47;;;1.93;;
5345;SDS011;2695;49.444;11.054;2023-08-06T02:55:01;4.50;;;2.53;;
5345;SDS011;2695;49.444;11.054;2023-08-06T02:57:29;2.83;;;2.10;;
5345;SDS011;2695;49.444;11.054;2023-08-06T02:59:57;3.83;;;2.20;;
5345;SDS011;2695;49.444;11.054;2023-08-06T03:02:27;4.03;;;2.23;;
5345;SDS011;2695;49.444;11.054;2023-08-06T03:04:54;3.17;;;2.90;;
5345;SDS011;2695;49.444;11.054;2023-08-06T03:07:23;4.53;;;2.40;;
5345;SDS011;2695;49.444;11.054;2023-08-06T03:09:51;2.53;;;2.33;;
5345;SDS011;2695;49.444;11.054;2023-08-06T03:12:19;3.07;;;2.10;;
5345;SDS011;2695;49.444;11.054;2023-08-06T03:14:47;2.20;;;2.00;;
5345;SDS011;2695;49.444;11.054;2023-08-06T03:17:15;2.30;;;2.10;;
5345;SDS011;2695;49.444;11.054;2023-08-06T03:19:44;2.57;;;2.07;;
5345;SDS011;2695;49.444;11.054;2023-08-06T03:22:12;2.80;;;2.50;;
5345;SDS011;2695;49.444;11.054;2023-08-06T03:24:40;5.43;;;2.40;;
5345;SDS011;2695;49.444;11.054;2023-08-06T03:27:08;2.07;;;1.87;;
5345;SDS011;2695;49.444;11.054;2023-08-06T03:29:36;2.10;;;1.90;;
5345;SDS011;2695;49.444;11.054;2023-08-06T03:32:04;2.27;;;1.70;;
5345;SDS011;2695;49.444;11.054;2023-08-06T03:34:33;2.07;;;1.70;;
5345;SDS011;2695;49.444;11.054;2023-08-06T03:37:02;2.33;;;2.13;;
5345;SDS011;2695;49.444;11.054;2023-08-06T03:39:31;3.43;;;1.90;;
5345;SDS011;2695;49.444;11.054;2023-08-06T03:41:59;1.90;;;1.73;;
5345;SDS011;2695;49.444;11.054;2023-08-06T03:44:27;2.70;;;2.17;;
5345;SDS011;2695;49.444;11.054;2023-08-06T03:46:55;2.70;;;2.00;;
5345;SDS011;2695;49.444;11.054;2023-08-06T03:49:23;3.23;;;2.20;;
5345;SDS011;2695;49.444;11.054;2023-08-06T03:51:51;1.70;;;1.60;;
5345;SDS011;2695;49.444;11.054;2023-08-06T03:54:20;2.50;;;2.03;;
5345;SDS011;2695;49.444;11.054;2023-08-06T03:56:48;2.90;;;2.23;;
5345;SDS011;2695;49.444;11.054;2023-08-06T03:59:16;4.80;;;2.20;;
5345;SDS011;2695;49.444;11.054;2023-08-06T04:01:44;3.10;;;1.97;;
5345;SDS011;2695;49.444;11.054;2023-08-06T04:04:12;3.30;;;2.00;;
5345;SDS011;2695;49.444;11.054;2023-08-06T04:06:40;1.77;;;1.67;;
5345;SDS011;2695;49.444;11.054;2023-08-06T04:09:08;2.47;;;2.27;;
5345;SDS011;2695;49.444;11.054;2023-08-06T04:11:38;2.30;;;2.10;;
5345;SDS011;2695;49.444;11.054;2023-08-06T04:14:06;4.77;;;2.30;;
5345;SDS011;2695;49.444;11.054;2023-08-06T04:16:34;3.23;;;2.20;;
5345;SDS011;2695;49.444;11.054;2023-08-06T04:19:02;2.87;;;2.20;;
5345;SDS011;2695;49.444;11.054;2023-08-06T04:21:30;3.13;;;2.30;;
5345;SDS011;2695;49.444;11.054;2023-08-06T04:23:59;2.80;;;2.10;;
5345;SDS011;2695;49.444;11.054;2023-08-06T04:26:27;2.83;;;2.57;;
5345;SDS011;2695;49.444;11.054;2023-08-06T04:28:56;4.53;;;2.60;;
5345;SDS011;2695;49.444;11.054;2023-08-06T04:31:24;3.13;;;2.67;;
5345;SDS011;2695;49.444;11.054;2023-08-06T04:33:52;4.20;;;2.37;;
5345;SDS011;2695;49.444;11.054;2023-08-06T04:36:20;4.10;;;2.30;;
5345;SDS011;2695;49.444;11.054;2023-08-06T04:38:48;3.00;;;2.70;;
5345;SDS011;2695;49.444;11.054;2023-08-06T04:41:16;2.53;;;2.30;;
5345;SDS011;2695;49.444;11.054;2023-08-06T04:43:44;2.53;;;2.33;;
5345;SDS011;2695;49.444;11.054;2023-08-06T04:46:14;3.40;;;2.53;;
5345;SDS011;2695;49.444;11.054;2023-08-06T04:48:42;5.50;;;2.53;;
5345;SDS011;2695;49.444;11.054;2023-08-06T04:51:10;2.40;;;2.20;;
5345;SDS011;2695;49.444;11.054;2023-08-06T04:53:38;4.40;;;3.57;;
5345;SDS011;2695;49.444;11.054;2023-08-06T04:56:11;2.90;;;2.40;;
5345;SDS011;2695;49.444;11.054;2023-08-06T04:58:39;2.70;;;2.50;;
5345;SDS011;2695;49.444;11.054;2023-08-06T05:01:09;2.83;;;2.53;;
5345;SDS011;2695;49.444;11.054;2023-08-06T05:03:38;2.63;;;2.43;;
5345;SDS011;2695;49.444;11.054;2023-08-06T05:06:08;3.10;;;2.20;;
5345;SDS011;2695;49.444;11.054;2023-08-06T05:08:39;2.93;;;2.63;;
5345;SDS011;2695;49.444;11.054;2023-08-06T05:11:09;2.77;;;2.57;;
5345;SDS011;2695;49.444;11.054;2023-08-06T05:13:39;2.73;;;2.47;;
5345;SDS011;2695;49.444;11.054;2023-08-06T05:16:12;3.07;;;2.53;;
5345;SDS011;2695;49.444;11.054;2023-08-06T05:18:44;2.27;;;2.10;;
5345;SDS011;2695;49.444;11.054;2023-08-06T05:21:17;2.57;;;2.20;;
5345;SDS011;2695;49.444;11.054;2023-08-06T05:23:48;2.80;;;2.30;;
5345;SDS011;2695;49.444;11.054;2023-08-06T05:26:17;5.33;;;2.50;;
5345;SDS011;2695;49.444;11.054;2023-08-06T05:28:48;2.57;;;2.17;;
5345;SDS011;2695;49.444;11.054;2023-08-06T05:31:16;2.60;;;2.40;;
5345;SDS011;2695;49.444;11.054;2023-08-06T05:33:56;3.63;;;2.13;;
5345;SDS011;2695;49.444;11.054;2023-08-06T05:36:24;2.10;;;1.90;;
5345;SDS011;2695;49.444;11.054;2023-08-06T05:38:57;2.07;;;1.97;;
5345;SDS011;2695;49.444;11.054;2023-08-06T05:41:27;2.43;;;2.23;;
5345;SDS011;2695;49.444;11.054;2023-08-06T05:43:55;2.73;;;2.07;;
5345;SDS011;2695;49.444;11.054;2023-08-06T05:46:29;6.13;;;2.33;;
5345;SDS011;2695;49.444;11.054;2023-08-06T05:48:59;3.30;;;2.47;;
5345;SDS011;2695;49.444;11.054;2023-08-06T05:51:31;4.10;;;2.20;;
5345;SDS011;2695;49.444;11.054;2023-08-06T05:54:03;4.30;;;2.40;;
5345;SDS011;2695;49.444;11.054;2023-08-06T05:56:33;4.90;;;2.83;;
5345;SDS011;2695;49.444;11.054;2023-08-06T05:59:01;2.43;;;2.17;;
5345;SDS011;2695;49.444;11.054;2023-08-06T06:01:29;5.20;;;2.57;;
5345;SDS011;2695;49.444;11.054;2023-08-06T06:04:01;3.80;;;2.40;;
5345;SDS011;2695;49.444;11.054;2023-08-06T06:06:38;2.10;;;1.97;;
5345;SDS011;2695;49.444;11.054;2023-08-06T06:09:08;1.85;;;1.75;;
5345;SDS011;2695;49.444;11.054;2023-08-06T06:11:36;1.83;;;1.63;;
5345;SDS011;2695;49.444;11.054;2023-08-06T06:14:03;4.20;;;1.92;;
5345;SDS011;2695;49.444;11.054;2023-08-06T06:16:34;2.10;;;1.90;;
5345;SDS011;2695;49.444;11.054;2023-08-06T06:19:04;4.50;;;2.00;;
5345;SDS011;2695;49.444;11.054;2023-08-06T06:21:34;2.47;;;1.95;;
5345;SDS011;2695;49.444;11.054;2023-08-06T06:24:04;2.20;;;2.00;;
5345;SDS011;2695;49.444;11.054;2023-08-06T06:26:32;2.75;;;2.08;;
5345;SDS011;2695;49.444;11.054;2023-08-06T06:29:00;1.85;;;1.75;;
5345;SDS011;2695;49.444;11.054;2023-08-06T06:31:28;2.60;;;2.17;;
5345;SDS011;2695;49.444;11.054;2023-08-06T06:33:56;2.67;;;2.25;;
5345;SDS011;2695;49.444;11.054;2023-08-06T06:36:26;7.60;;;2.17;;
5345;SDS011;2695;49.444;11.054;2023-08-06T06:38:55;8.00;;;2.30;;
5345;SDS011;2695;49.444;11.054;2023-08-06T06:41:23;2.40;;;2.20;;
5345;SDS011;2695;49.444;11.054;2023-08-06T06:43:57;3.63;;;2.40;;
5345;SDS011;2695;49.444;11.054;2023-08-06T06:46:26;6.27;;;2.43;;
5345;SDS011;2695;49.444;11.054;2023-08-06T06:48:54;4.37;;;2.20;;
5345;SDS011;2695;49.444;11.054;2023-08-06T06:51:27;4.43;;;2.17;;
5345;SDS011;2695;49.444;11.054;2023-08-06T06:53:55;2.83;;;2.00;;
5345;SDS011;2695;49.444;11.054;2023-08-06T06:56:23;4.47;;;2.80;;
5345;SDS011;2695;49.444;11.054;2023-08-06T06:58:51;2.57;;;2.03;;
5345;SDS011;2695;49.444;11.054;2023-08-06T07:01:19;2.57;;;1.90;;
5345;SDS011;2695;49.444;11.054;2023-08-06T07:03:49;3.00;;;2.60;;
5345;SDS011;2695;49.444;11.054;2023-08-06T07:06:17;2.37;;;2.17;;
5345;SDS011;2695;49.444;11.054;2023-08-06T07:08:46;2.27;;;2.07;;
5345;SDS011;2695;49.444;11.054;2023-08-06T07:11:14;2.47;;;2.27;;
5345;SDS011;2695;49.444;11.054;2023-08-06T07:13:46;2.40;;;1.87;;
5345;SDS011;2695;49.444;11.054;2023-08-06T07:16:15;3.70;;;2.43;;
5345;SDS011;2695;49.444;11.054;2023-08-06T07:18:45;2.53;;;2.13;;
5345;SDS011;2695;49.444;11.054;2023-08-06T07:21:13;10.63;;;2.10;;
5345;SDS011;2695;49.444;11.054;2023-08-06T07:23:42;4.60;;;2.80;;
5345;SDS011;2695;49.444;11.054;2023-08-06T07:26:15;2.97;;;2.73;;
5345;SDS011;2695;49.444;11.054;2023-08-06T07:28:43;3.10;;;2.37;;
5345;SDS011;2695;49.444;11.054;2023-08-06T07:31:12;2.63;;;2.00;;
5345;SDS011;2695;49.444;11.054;2023-08-06T07:33:40;4.77;;;2.57;;
5345;SDS011;2695;49.444;11.054;2023-08-06T07:36:08;5.97;;;2.17;;
5345;SDS011;2695;49.444;11.054;2023-08-06T07:38:38;3.60;;;2.90;;
5345;SDS011;2695;49.444;11.054;2023-08-06T07:41:06;3.13;;;2.37;;
5345;SDS011;2695;49.444;11.054;2023-08-06T07:43:38;1.93;;;1.83;;
5345;SDS011;2695;49.444;11.054;2023-08-06T07:46:09;2.83;;;1.80;;
5345;SDS011;2695;49.444;11.054;2023-08-06T07:48:38;2.03;;;1.63;;
5345;SDS011;2695;49.444;11.054;2023-08-06T07:51:08;5.35;;;2.15;;
5345;SDS011;2695;49.444;11.054;2023-08-06T07:53:41;2.30;;;1.80;;
5345;SDS011;2695;49.444;11.054;2023-08-06T07:56:09;6.18;;;1.38;;
5345;SDS011;2695;49.444;11.054;2023-08-06T07:58:42;5.00;;;2.03;;
5345;SDS011;2695;49.444;11.054;2023-08-06T08:01:12;2.20;;;1.45;;
5345;SDS011;2695;49.444;11.054;2023-08-06T08:03:43;4.40;;;1.80;;
5345;SDS011;2695;49.444;11.054;2023-08-06T08:06:14;2.20;;;1.40;;
5345;SDS011;2695;49.444;11.054;2023-08-06T08:08:43;1.48;;;1.38;;
5345;SDS011;2695;49.444;11.054;2023-08-06T08:11:11;3.05;;;1.38;;
5345;SDS011;2695;49.444;11.054;2023-08-06T08:13:42;2.00;;;1.20;;
5345;SDS011;2695;49.444;11.054;2023-08-06T08:16:12;2.40;;;1.30;;
5345;SDS011;2695;49.444;11.054;2023-08-06T08:18:42;3.13;;;1.30;;
5345;SDS011;2695;49.444;11.054;2023-08-06T08:21:10;1.48;;;1.15;;
5345;SDS011;2695;49.444;11.054;2023-08-06T08:23:39;1.70;;;1.25;;
5345;SDS011;2695;49.444;11.054;2023-08-06T08:26:11;1.00;;;0.93;;
5345;SDS011;2695;49.444;11.054;2023-08-06T08:28:44;2.77;;;1.10;;
5345;SDS011;2695;49.444;11.054;2023-08-06T08:31:12;3.20;;;1.23;;
5345;SDS011;2695;49.444;11.054;2023-08-06T08:33:40;1.40;;;0.80;;
5345;SDS011;2695;49.444;11.054;2023-08-06T08:36:09;1.53;;;0.90;;
5345;SDS011;2695;49.444;11.054;2023-08-06T08:38:37;2.90;;;1.30;;
5345;SDS011;2695;49.444;11.054;2023-08-06T08:41:05;0.80;;;0.80;;
5345;SDS011;2695;49.444;11.054;2023-08-06T08:43:33;2.77;;;0.80;;
5345;SDS011;2695;49.444;11.054;2023-08-06T08:46:03;1.90;;;0.80;;
5345;SDS011;2695;49.444;11.054;2023-08-06T08:48:33;2.40;;;0.70;;
5345;SDS011;2695;49.444;11.054;2023-08-06T08:51:02;0.80;;;0.53;;
5345;SDS011;2695;49.444;11.054;2023-08-06T08:53:31;2.97;;;0.60;;
5345;SDS011;2695;49.444;11.054;2023-08-06T08:56:00;1.50;;;0.73;;
5345;SDS011;2695;49.444;11.054;2023-08-06T08:58:32;0.60;;;0.50;;
5345;SDS011;2695;49.444;11.054;2023-08-06T09:01:04;0.90;;;0.70;;
5345;SDS011;2695;49.444;11.054;2023-08-06T09:03:39;1.13;;;1.00;;
5345;SDS011;2695;49.444;11.054;2023-08-06T09:06:13;0.70;;;0.57;;
5345;SDS011;2695;49.444;11.054;2023-08-06T09:08:48;0.60;;;0.57;;
5345;SDS011;2695;49.444;11.054;2023-08-06T09:11:21;0.80;;;0.70;;
5345;SDS011;2695;49.444;11.054;2023-08-06T09:13:50;0.60;;;0.60;;
5345;SDS011;2695;49.444;11.054;2023-08-06T09:16:22;0.88;;;0.70;;
5345;SDS011;2695;49.444;11.054;2023-08-06T09:18:54;0.70;;;0.60;;
5345;SDS011;2695;49.444;11.054;2023-08-06T09:21:40;0.70;;;0.70;;
5345;SDS011;2695;49.444;11.054;2023-08-06T09:24:49;0.90;;;0.60;;
5345;SDS011;2695;49.444;11.054;2023-08-06T09:27:22;2.13;;;1.92;;
5345;SDS011;2695;49.444;11.054;2023-08-06T09:29:50;0.63;;;0.60;;
5345;SDS011;2695;49.444;11.054;2023-08-06T09:32:21;0.60;;;0.60;;
5345;SDS011;2695;49.444;11.054;2023-08-06T09:34:54;1.42;;;0.70;;
5345;SDS011;2695;49.444;11.054;2023-08-06T09:37:30;0.60;;;0.55;;
5345;SDS011;2695;49.444;11.054;2023-08-06T09:40:20;1.27;;;0.88;;
5345;SDS011;2695;49.444;11.054;2023-08-06T09:43:02;1.25;;;0.82;;
5345;SDS011;2695;49.444;11.054;2023-08-06T09:45:37;0.60;;;0.50;;
5345;SDS011;2695;49.444;11.054;2023-08-06T09:48:14;1.80;;;0.60;;
5345;SDS011;2695;49.444;11.054;2023-08-06T09:50:43;1.92;;;0.70;;
5345;SDS011;2695;49.444;11.054;2023-08-06T09:53:14;0.80;;;0.75;;
5345;SDS011;2695;49.444;11.054;2023-08-06T09:55:45;0.73;;;0.50;;
5345;SDS011;2695;49.444;11.054;2023-08-06T09:58:13;1.03;;;0.73;;
5345;SDS011;2695;49.444;11.054;2023-08-06T10:00:42;1.20;;;1.10;;
5345;SDS011;2695;49.444;11.054;2023-08-06T10:03:10;0.60;;;0.50;;
5345;SDS011;2695;49.444;11.054;2023-08-06T10:05:41;0.60;;;0.60;;
5345;SDS011;2695;49.444;11.054;2023-08-06T10:08:14;0.60;;;0.60;;
5345;SDS011;2695;49.444;11.054;2023-08-06T10:10:42;0.75;;;0.60;;
5345;SDS011;2695;49.444;11.054;2023-08-06T10:13:12;0.80;;;0.70;;
5345;SDS011;2695;49.444;11.054;2023-08-06T10:15:41;0.60;;;0.60;;
5345;SDS011;2695;49.444;11.054;2023-08-06T10:18:09;1.95;;;0.90;;
5345;SDS011;2695;49.444;11.054;2023-08-06T10:20:44;1.33;;;1.00;;
5345;SDS011;2695;49.444;11.054;2023-08-06T10:23:14;0.82;;;0.70;;
5345;SDS011;2695;49.444;11.054;2023-08-06T10:25:43;0.70;;;0.70;;
5345;SDS011;2695;49.444;11.054;2023-08-06T10:28:21;0.63;;;0.63;;
5345;SDS011;2695;49.444;11.054;2023-08-06T10:30:49;0.70;;;0.70;;
5345;SDS011;2695;49.444;11.054;2023-08-06T10:33:20;0.88;;;0.70;;
5345;SDS011;2695;49.444;11.054;2023-08-06T10:35:48;0.80;;;0.60;;
5345;SDS011;2695;49.444;11.054;2023-08-06T10:38:21;3.15;;;0.70;;
5345;SDS011;2695;49.444;11.054;2023-08-06T10:41:02;0.65;;;0.60;;
5345;SDS011;2695;49.444;11.054;2023-08-06T10:43:32;1.70;;;0.68;;
5345;SDS011;2695;49.444;11.054;2023-08-06T10:46:01;3.35;;;1.38;;
5345;SDS011;2695;49.444;11.054;2023-08-06T10:48:33;1.73;;;1.15;;
5345;SDS011;2695;49.444;11.054;2023-08-06T10:51:04;0.98;;;0.68;;
5345;SDS011;2695;49.444;11.054;2023-08-06T10:53:34;0.85;;;0.75;;
5345;SDS011;2695;49.444;11.054;2023-08-06T10:56:07;0.80;;;0.75;;
5345;SDS011;2695;49.444;11.054;2023-08-06T11:01:48;0.70;;;0.60;;
5345;SDS011;2695;49.444;11.054;2023-08-06T11:04:17;0.75;;;0.70;;
5345;SDS011;2695;49.444;11.054;2023-08-06T11:06:45;0.95;;;0.52;;
5345;SDS011;2695;49.444;11.054;2023-08-06T11:09:20;0.60;;;0.50;;
5345;SDS011;2695;49.444;11.054;2023-08-06T11:11:51;1.07;;;0.87;;
5345;SDS011;2695;49.444;11.054;2023-08-06T11:14:19;0.80;;;0.60;;
5345;SDS011;2695;49.444;11.054;2023-08-06T11:16:47;0.60;;;0.53;;
5345;SDS011;2695;49.444;11.054;2023-08-06T11:19:18;0.83;;;0.50;;
5345;SDS011;2695;49.444;11.054;2023-08-06T11:21:47;1.67;;;1.00;;
5345;SDS011;2695;49.444;11.054;2023-08-06T11:24:15;0.80;;;0.60;;
5345;SDS011;2695;49.444;11.054;2023-08-06T11:26:44;0.80;;;0.70;;
5345;SDS011;2695;49.444;11.054;2023-08-06T11:29:12;1.03;;;0.70;;
5345;SDS011;2695;49.444;11.054;2023-08-06T11:32:02;1.10;;;0.50;;
5345;SDS011;2695;49.444;11.054;2023-08-06T11:34:56;1.37;;;0.90;;
5345;SDS011;2695;49.444;11.054;2023-08-06T11:37:25;2.23;;;0.90;;
5345;SDS011;2695;49.444;11.054;2023-08-06T11:42:46;0.73;;;0.57;;
5345;SDS011;2695;49.444;11.054;2023-08-06T11:45:15;0.87;;;0.70;;
5345;SDS011;2695;49.444;11.054;2023-08-06T11:47:49;1.87;;;0.60;;
5345;SDS011;2695;49.444;11.054;2023-08-06T11:50:27;1.07;;;0.70;;
5345;SDS011;2695;49.444;11.054;2023-08-06T11:52:57;0.63;;;0.60;;
5345;SDS011;2695;49.444;11.054;2023-08-06T11:55:27;0.60;;;0.50;;
5345;SDS011;2695;49.444;11.054;2023-08-06T11:58:10;1.00;;;0.60;;
5345;SDS011;2695;49.444;11.054;2023-08-06T12:00:38;0.60;;;0.60;;
5345;SDS011;2695;49.444;11.054;2023-08-06T12:03:10;0.87;;;0.63;;
5345;SDS011;2695;49.444;11.054;2023-08-06T12:05:42;0.73;;;0.60;;
5345;SDS011;2695;49.444;11.054;2023-08-06T12:08:13;2.97;;;0.50;;
5345;SDS011;2695;49.444;11.054;2023-08-06T12:10:41;0.60;;;0.60;;
5345;SDS011;2695;49.444;11.054;2023-08-06T12:13:09;1.00;;;0.90;;
5345;SDS011;2695;49.444;11.054;2023-08-06T12:15:58;1.83;;;0.90;;
5345;SDS011;2695;49.444;11.054;2023-08-06T12:18:26;2.20;;;1.20;;
5345;SDS011;2695;49.444;11.054;2023-08-06T12:20:55;0.80;;;0.60;;
5345;SDS011;2695;49.444;11.054;2023-08-06T12:23:24;0.70;;;0.70;;
5345;SDS011;2695;49.444;11.054;2023-08-06T12:25:52;3.77;;;2.03;;
5345;SDS011;2695;49.444;11.054;2023-08-06T12:28:20;0.90;;;0.77;;
5345;SDS011;2695;49.444;11.054;2023-08-06T12:30:49;3.20;;;0.97;;
5345;SDS011;2695;49.444;11.054;2023-08-06T12:33:21;1.07;;;0.87;;
5345;SDS011;2695;49.444;11.054;2023-08-06T12:35:49;2.80;;;0.90;;
5345;SDS011;2695;49.444;11.054;2023-08-06T12:38:19;1.20;;;0.70;;
5345;SDS011;2695;49.444;11.054;2023-08-06T12:40:47;0.90;;;0.73;;
5345;SDS011;2695;49.444;11.054;2023-08-06T12:43:15;1.00;;;0.70;;
5345;SDS011;2695;49.444;11.054;2023-08-06T12:45:43;0.80;;;0.80;;
5345;SDS011;2695;49.444;11.054;2023-08-06T12:48:12;1.20;;;0.73;;
5345;SDS011;2695;49.444;11.054;2023-08-06T12:50:40;1.10;;;0.60;;
5345;SDS011;2695;49.444;11.054;2023-08-06T12:53:08;1.13;;;0.60;;
5345;SDS011;2695;49.444;11.054;2023-08-06T12:55:38;1.60;;;0.70;;
5345;SDS011;2695;49.444;11.054;2023-08-06T12:58:16;2.33;;;0.50;;
5345;SDS011;2695;49.444;11.054;2023-08-06T13:00:43;1.87;;;0.60;;
5345;SDS011;2695;49.444;11.054;2023-08-06T13:03:12;0.50;;;0.50;;
5345;SDS011;2695;49.444;11.054;2023-08-06T13:05:40;2.60;;;1.07;;
5345;SDS011;2695;49.444;11.054;2023-08-06T13:08:09;2.63;;;0.80;;
5345;SDS011;2695;49.444;11.054;2023-08-06T13:10:38;0.60;;;0.50;;
5345;SDS011;2695;49.444;11.054;2023-08-06T13:13:14;1.77;;;0.70;;
5345;SDS011;2695;49.444;11.054;2023-08-06T13:15:42;0.57;;;0.50;;
5345;SDS011;2695;49.444;11.054;2023-08-06T13:18:14;5.03;;;0.80;;
5345;SDS011;2695;49.444;11.054;2023-08-06T13:20:41;1.33;;;0.83;;
5345;SDS011;2695;49.444;11.054;2023-08-06T13:23:13;1.10;;;1.00;;
5345;SDS011;2695;49.444;11.054;2023-08-06T13:25:44;0.70;;;0.70;;
5345;SDS011;2695;49.444;11.054;2023-08-06T13:28:12;1.53;;;1.03;;
5345;SDS011;2695;49.444;11.054;2023-08-06T13:30:40;2.93;;;0.90;;
5345;SDS011;2695;49.444;11.054;2023-08-06T13:35:55;3.47;;;1.20;;
5345;SDS011;2695;49.444;11.054;2023-08-06T13:38:23;1.03;;;0.70;;
5345;SDS011;2695;49.444;11.054;2023-08-06T13:40:52;1.30;;;0.63;;
5345;SDS011;2695;49.444;11.054;2023-08-06T13:43:20;0.70;;;0.60;;
5345;SDS011;2695;49.444;11.054;2023-08-06T13:45:48;0.97;;;0.60;;
5345;SDS011;2695;49.444;11.054;2023-08-06T13:48:25;1.13;;;0.90;;
5345;SDS011;2695;49.444;11.054;2023-08-06T13:50:59;0.97;;;0.80;;
5345;SDS011;2695;49.444;11.054;2023-08-06T13:53:27;2.63;;;0.70;;
5345;SDS011;2695;49.444;11.054;2023-08-06T13:55:57;1.93;;;0.60;;
5345;SDS011;2695;49.444;11.054;2023-08-06T13:58:25;1.40;;;0.70;;
5345;SDS011;2695;49.444;11.054;2023-08-06T14:00:53;0.73;;;0.73;;
5345;SDS011;2695;49.444;11.054;2023-08-06T14:03:23;0.60;;;0.57;;
5345;SDS011;2695;49.444;11.054;2023-08-06T14:05:51;2.80;;;0.70;;
5345;SDS011;2695;49.444;11.054;2023-08-06T14:08:21;0.60;;;0.50;;
5345;SDS011;2695;49.444;11.054;2023-08-06T14:10:49;0.70;;;0.50;;
5345;SDS011;2695;49.444;11.054;2023-08-06T14:13:19;0.70;;;0.40;;
5345;SDS011;2695;49.444;11.054;2023-08-06T14:15:48;0.80;;;0.60;;
5345;SDS011;2695;49.444;11.054;2023-08-06T14:18:16;0.60;;;0.53;;
5345;SDS011;2695;49.444;11.054;2023-08-06T14:20:44;0.60;;;0.50;;
5345;SDS011;2695;49.444;11.054;2023-08-06T14:23:12;1.97;;;0.60;;
5345;SDS011;2695;49.444;11.054;2023-08-06T14:25:40;0.90;;;0.70;;
5345;SDS011;2695;49.444;11.054;2023-08-06T14:28:08;1.00;;;0.60;;
5345;SDS011;2695;49.444;11.054;2023-08-06T14:30:38;1.13;;;0.70;;
5345;SDS011;2695;49.444;11.054;2023-08-06T14:33:06;0.70;;;0.70;;
5345;SDS011;2695;49.444;11.054;2023-08-06T14:35:52;1.00;;;0.60;;
5345;SDS011;2695;49.444;11.054;2023-08-06T14:38:20;0.73;;;0.50;;
5345;SDS011;2695;49.444;11.054;2023-08-06T14:40:48;1.13;;;0.70;;
5345;SDS011;2695;49.444;11.054;2023-08-06T14:43:16;1.93;;;0.70;;
5345;SDS011;2695;49.444;11.054;2023-08-06T14:45:45;0.60;;;0.50;;
5345;SDS011;2695;49.444;11.054;2023-08-06T14:48:13;0.63;;;0.50;;
5345;SDS011;2695;49.444;11.054;2023-08-06T14:50:41;0.63;;;0.60;;
5345;SDS011;2695;49.444;11.054;2023-08-06T14:53:10;3.57;;;0.80;;
5345;SDS011;2695;49.444;11.054;2023-08-06T14:55:39;0.97;;;0.70;;
5345;SDS011;2695;49.444;11.054;2023-08-06T14:58:08;1.47;;;0.63;;
5345;SDS011;2695;49.444;11.054;2023-08-06T15:00:36;2.20;;;0.90;;
5345;SDS011;2695;49.444;11.054;2023-08-06T15:03:17;0.73;;;0.70;;
5345;SDS011;2695;49.444;11.054;2023-08-06T15:05:46;0.70;;;0.60;;
5345;SDS011;2695;49.444;11.054;2023-08-06T15:08:16;0.90;;;0.80;;
5345;SDS011;2695;49.444;11.054;2023-08-06T15:10:49;0.80;;;0.70;;
5345;SDS011;2695;49.444;11.054;2023-08-06T15:13:17;2.10;;;0.70;;
5345;SDS011;2695;49.444;11.054;2023-08-06T15:15:46;1.43;;;1.00;;
5345;SDS011;2695;49.444;11.054;2023-08-06T15:18:14;2.03;;;0.90;;
5345;SDS011;2695;49.444;11.054;2023-08-06T15:20:43;1.07;;;0.80;;
5345;SDS011;2695;49.444;11.054;2023-08-06T15:23:11;0.93;;;0.80;;
5345;SDS011;2695;49.444;11.054;2023-08-06T15:25:39;1.00;;;0.90;;